sensor_id;sensor_type;location;lat;lon;timestamp;P1;durP1;ratioP1;P2;durP2;ratioP2
67640;SDS011;54434;50.096;20.082;2023-10-09T00:01:12;13.40;;;5.40;;
67640;SDS011;54434;50.096;20.082;2023-10-09T00:03:53;12.30;;;5.50;;
67640;SDS011;54434;50.096;20.082;2023-10-09T00:06:34;11.30;;;5.40;;
67640;SDS011;54434;50.096;20.082;2023-10-09T00:09:11;12.30;;;5.30;;
67640;SDS011;54434;50.096;20.082;2023-10-09T00:11:53;11.90;;;5.40;;
67640;SDS011;54434;50.096;20.082;2023-10-09T00:14:32;14.80;;;5.50;;
67640;SDS011;54434;50.096;20.082;2023-10-09T00:17:12;11.10;;;5.20;;
67640;SDS011;54434;50.096;20.082;2023-10-09T00:19:55;12.60;;;5.40;;
67640;SDS011;54434;50.096;20.082;2023-10-09T00:22:41;12.40;;;5.70;;
67640;SDS011;54434;50.096;20.082;2023-10-09T00:25:20;13.30;;;5.90;;
67640;SDS011;54434;50.096;20.082;2023-10-09T00:28:02;13.00;;;6.20;;
67640;SDS011;54434;50.096;20.082;2023-10-09T00:30:52;11.80;;;5.40;;
67640;SDS011;54434;50.096;20.082;2023-10-09T00:33:28;10.70;;;5.40;;
67640;SDS011;54434;50.096;20.082;2023-10-09T00:36:07;11.70;;;5.70;;
67640;SDS011;54434;50.096;20.082;2023-10-09T00:38:44;13.20;;;5.80;;
67640;SDS011;54434;50.096;20.082;2023-10-09T00:41:24;11.70;;;5.60;;
67640;SDS011;54434;50.096;20.082;2023-10-09T00:44:02;13.20;;;6.00;;
67640;SDS011;54434;50.096;20.082;2023-10-09T00:46:42;14.00;;;6.20;;
67640;SDS011;54434;50.096;20.082;2023-10-09T00:49:21;11.70;;;6.00;;
67640;SDS011;54434;50.096;20.082;2023-10-09T00:51:57;11.60;;;5.80;;
67640;SDS011;54434;50.096;20.082;2023-10-09T00:54:34;14.90;;;6.20;;
67640;SDS011;54434;50.096;20.082;2023-10-09T00:57:14;13.00;;;6.10;;
67640;SDS011;54434;50.096;20.082;2023-10-09T00:59:53;14.20;;;6.70;;
67640;SDS011;54434;50.096;20.082;2023-10-09T01:02:34;16.20;;;6.00;;
67640;SDS011;54434;50.096;20.082;2023-10-09T01:05:15;13.90;;;6.30;;
67640;SDS011;54434;50.096;20.082;2023-10-09T01:07:53;13.10;;;6.50;;
67640;SDS011;54434;50.096;20.082;2023-10-09T01:10:45;12.80;;;6.30;;
67640;SDS011;54434;50.096;20.082;2023-10-09T01:13:29;12.60;;;6.50;;
67640;SDS011;54434;50.096;20.082;2023-10-09T01:16:12;13.00;;;6.40;;
67640;SDS011;54434;50.096;20.082;2023-10-09T01:18:53;13.30;;;6.20;;
67640;SDS011;54434;50.096;20.082;2023-10-09T01:21:31;12.60;;;6.50;;
67640;SDS011;54434;50.096;20.082;2023-10-09T01:24:08;14.20;;;6.30;;
67640;SDS011;54434;50.096;20.082;2023-10-09T01:26:45;13.40;;;6.80;;
67640;SDS011;54434;50.096;20.082;2023-10-09T01:29:24;15.50;;;6.80;;
67640;SDS011;54434;50.096;20.082;2023-10-09T01:32:03;12.60;;;6.50;;
67640;SDS011;54434;50.096;20.082;2023-10-09T01:34:40;12.40;;;6.60;;
67640;SDS011;54434;50.096;20.082;2023-10-09T01:37:20;12.40;;;6.00;;
67640;SDS011;54434;50.096;20.082;2023-10-09T01:40:00;13.20;;;5.70;;
67640;SDS011;54434;50.096;20.082;2023-10-09T01:42:56;12.00;;;6.20;;
67640;SDS011;54434;50.096;20.082;2023-10-09T01:45:34;14.10;;;6.80;;
67640;SDS011;54434;50.096;20.082;2023-10-09T01:48:16;13.60;;;6.60;;
67640;SDS011;54434;50.096;20.082;2023-10-09T01:50:58;13.80;;;6.70;;
67640;SDS011;54434;50.096;20.082;2023-10-09T01:53:38;14.10;;;6.50;;
67640;SDS011;54434;50.096;20.082;2023-10-09T01:56:15;15.10;;;6.70;;
67640;SDS011;54434;50.096;20.082;2023-10-09T01:58:52;11.50;;;6.00;;
67640;SDS011;54434;50.096;20.082;2023-10-09T02:01:35;11.90;;;6.00;;
67640;SDS011;54434;50.096;20.082;2023-10-09T02:04:15;14.80;;;6.20;;
67640;SDS011;54434;50.096;20.082;2023-10-09T02:06:54;14.80;;;6.70;;
67640;SDS011;54434;50.096;20.082;2023-10-09T02:09:31;14.70;;;6.60;;
67640;SDS011;54434;50.096;20.082;2023-10-09T02:12:09;12.50;;;6.70;;
67640;SDS011;54434;50.096;20.082;2023-10-09T02:14:46;18.20;;;7.60;;
67640;SDS011;54434;50.096;20.082;2023-10-09T02:17:23;14.60;;;7.50;;
67640;SDS011;54434;50.096;20.082;2023-10-09T02:20:03;14.50;;;7.40;;
67640;SDS011;54434;50.096;20.082;2023-10-09T02:22:50;14.20;;;7.80;;
67640;SDS011;54434;50.096;20.082;2023-10-09T02:25:28;15.70;;;8.30;;
67640;SDS011;54434;50.096;20.082;2023-10-09T02:28:16;15.30;;;8.00;;
67640;SDS011;54434;50.096;20.082;2023-10-09T02:30:52;13.90;;;7.50;;
67640;SDS011;54434;50.096;20.082;2023-10-09T02:33:34;15.00;;;8.10;;
67640;SDS011;54434;50.096;20.082;2023-10-09T02:36:13;17.80;;;8.60;;
67640;SDS011;54434;50.096;20.082;2023-10-09T02:38:50;16.70;;;8.00;;
67640;SDS011;54434;50.096;20.082;2023-10-09T02:41:30;18.40;;;8.20;;
67640;SDS011;54434;50.096;20.082;2023-10-09T02:44:08;17.00;;;8.20;;
67640;SDS011;54434;50.096;20.082;2023-10-09T02:46:45;17.30;;;7.80;;
67640;SDS011;54434;50.096;20.082;2023-10-09T02:49:21;17.20;;;8.50;;
67640;SDS011;54434;50.096;20.082;2023-10-09T02:51:59;18.00;;;8.20;;
67640;SDS011;54434;50.096;20.082;2023-10-09T02:54:40;17.80;;;8.50;;
67640;SDS011;54434;50.096;20.082;2023-10-09T02:57:20;16.90;;;8.40;;
67640;SDS011;54434;50.096;20.082;2023-10-09T02:59:58;18.20;;;8.80;;
67640;SDS011;54434;50.096;20.082;2023-10-09T03:02:34;15.80;;;8.50;;
67640;SDS011;54434;50.096;20.082;2023-10-09T03:05:14;15.60;;;8.20;;
67640;SDS011;54434;50.096;20.082;2023-10-09T03:07:52;15.80;;;7.90;;
67640;SDS011;54434;50.096;20.082;2023-10-09T03:10:28;16.40;;;8.40;;
67640;SDS011;54434;50.096;20.082;2023-10-09T03:13:07;15.70;;;7.40;;
67640;SDS011;54434;50.096;20.082;2023-10-09T03:15:45;15.60;;;9.00;;
67640;SDS011;54434;50.096;20.082;2023-10-09T03:18:25;15.00;;;8.20;;
67640;SDS011;54434;50.096;20.082;2023-10-09T03:21:02;15.80;;;7.90;;
67640;SDS011;54434;50.096;20.082;2023-10-09T03:23:40;17.20;;;8.50;;
67640;SDS011;54434;50.096;20.082;2023-10-09T03:26:17;16.30;;;8.80;;
67640;SDS011;54434;50.096;20.082;2023-10-09T03:28:54;16.20;;;8.50;;
67640;SDS011;54434;50.096;20.082;2023-10-09T03:31:34;17.50;;;8.80;;
67640;SDS011;54434;50.096;20.082;2023-10-09T03:34:11;17.10;;;8.90;;
67640;SDS011;54434;50.096;20.082;2023-10-09T03:36:48;18.30;;;9.20;;
67640;SDS011;54434;50.096;20.082;2023-10-09T03:39:37;14.70;;;7.90;;
67640;SDS011;54434;50.096;20.082;2023-10-09T03:42:14;17.20;;;8.40;;
67640;SDS011;54434;50.096;20.082;2023-10-09T03:44:53;17.70;;;8.40;;
67640;SDS011;54434;50.096;20.082;2023-10-09T03:47:31;21.20;;;8.80;;
67640;SDS011;54434;50.096;20.082;2023-10-09T03:50:09;19.70;;;8.20;;
67640;SDS011;54434;50.096;20.082;2023-10-09T03:52:57;17.40;;;8.70;;
67640;SDS011;54434;50.096;20.082;2023-10-09T03:55:34;15.60;;;8.20;;
67640;SDS011;54434;50.096;20.082;2023-10-09T03:58:12;16.60;;;8.60;;
67640;SDS011;54434;50.096;20.082;2023-10-09T04:00:52;18.60;;;9.10;;
67640;SDS011;54434;50.096;20.082;2023-10-09T04:03:29;19.50;;;9.40;;
67640;SDS011;54434;50.096;20.082;2023-10-09T04:06:06;23.50;;;8.60;;
67640;SDS011;54434;50.096;20.082;2023-10-09T04:08:45;18.70;;;7.60;;
67640;SDS011;54434;50.096;20.082;2023-10-09T04:11:22;19.60;;;7.60;;
67640;SDS011;54434;50.096;20.082;2023-10-09T04:13:59;14.90;;;7.90;;
67640;SDS011;54434;50.096;20.082;2023-10-09T04:16:43;14.40;;;7.40;;
67640;SDS011;54434;50.096;20.082;2023-10-09T04:19:25;17.50;;;6.90;;
67640;SDS011;54434;50.096;20.082;2023-10-09T04:22:02;14.80;;;6.80;;
67640;SDS011;54434;50.096;20.082;2023-10-09T04:24:41;15.80;;;5.80;;
67640;SDS011;54434;50.096;20.082;2023-10-09T04:27:17;14.30;;;5.90;;
67640;SDS011;54434;50.096;20.082;2023-10-09T04:30:00;13.90;;;6.10;;
67640;SDS011;54434;50.096;20.082;2023-10-09T04:32:40;13.50;;;6.20;;
67640;SDS011;54434;50.096;20.082;2023-10-09T04:35:18;15.40;;;6.00;;
67640;SDS011;54434;50.096;20.082;2023-10-09T04:37:57;12.70;;;5.80;;
67640;SDS011;54434;50.096;20.082;2023-10-09T04:40:38;14.70;;;6.50;;
67640;SDS011;54434;50.096;20.082;2023-10-09T04:43:25;12.30;;;5.40;;
67640;SDS011;54434;50.096;20.082;2023-10-09T04:46:02;13.20;;;5.90;;
67640;SDS011;54434;50.096;20.082;2023-10-09T04:48:46;14.30;;;6.20;;
67640;SDS011;54434;50.096;20.082;2023-10-09T04:51:26;16.70;;;6.40;;
67640;SDS011;54434;50.096;20.082;2023-10-09T04:54:10;12.30;;;5.90;;
67640;SDS011;54434;50.096;20.082;2023-10-09T04:57:06;14.80;;;6.30;;
67640;SDS011;54434;50.096;20.082;2023-10-09T04:59:51;12.50;;;6.20;;
67640;SDS011;54434;50.096;20.082;2023-10-09T05:02:32;16.30;;;6.90;;
67640;SDS011;54434;50.096;20.082;2023-10-09T05:05:11;17.10;;;7.20;;
67640;SDS011;54434;50.096;20.082;2023-10-09T05:08:11;15.20;;;7.60;;
67640;SDS011;54434;50.096;20.082;2023-10-09T05:10:53;17.50;;;7.70;;
67640;SDS011;54434;50.096;20.082;2023-10-09T05:13:51;16.50;;;7.70;;
67640;SDS011;54434;50.096;20.082;2023-10-09T05:16:45;17.30;;;7.10;;
67640;SDS011;54434;50.096;20.082;2023-10-09T05:19:28;15.60;;;7.00;;
67640;SDS011;54434;50.096;20.082;2023-10-09T05:22:28;16.80;;;7.80;;
67640;SDS011;54434;50.096;20.082;2023-10-09T05:25:10;18.90;;;7.10;;
67640;SDS011;54434;50.096;20.082;2023-10-09T05:28:10;15.20;;;6.90;;
67640;SDS011;54434;50.096;20.082;2023-10-09T05:31:04;14.40;;;7.20;;
67640;SDS011;54434;50.096;20.082;2023-10-09T05:33:45;16.60;;;6.80;;
67640;SDS011;54434;50.096;20.082;2023-10-09T05:36:27;16.40;;;7.00;;
67640;SDS011;54434;50.096;20.082;2023-10-09T05:39:09;17.10;;;6.00;;
67640;SDS011;54434;50.096;20.082;2023-10-09T05:41:55;16.00;;;6.80;;
67640;SDS011;54434;50.096;20.082;2023-10-09T05:44:41;13.90;;;6.40;;
67640;SDS011;54434;50.096;20.082;2023-10-09T05:47:51;13.70;;;5.60;;
67640;SDS011;54434;50.096;20.082;2023-10-09T05:50:30;17.40;;;5.40;;
67640;SDS011;54434;50.096;20.082;2023-10-09T05:53:11;19.40;;;5.40;;
67640;SDS011;54434;50.096;20.082;2023-10-09T05:56:12;17.50;;;5.10;;
67640;SDS011;54434;50.096;20.082;2023-10-09T05:59:08;18.50;;;5.30;;
67640;SDS011;54434;50.096;20.082;2023-10-09T06:02:02;13.00;;;4.70;;
67640;SDS011;54434;50.096;20.082;2023-10-09T06:04:56;15.20;;;4.60;;
67640;SDS011;54434;50.096;20.082;2023-10-09T06:07:38;12.00;;;4.60;;
67640;SDS011;54434;50.096;20.082;2023-10-09T06:10:36;9.40;;;4.40;;
67640;SDS011;54434;50.096;20.082;2023-10-09T06:13:15;12.80;;;4.80;;
67640;SDS011;54434;50.096;20.082;2023-10-09T06:16:11;12.10;;;4.40;;
67640;SDS011;54434;50.096;20.082;2023-10-09T06:19:15;13.10;;;4.90;;
67640;SDS011;54434;50.096;20.082;2023-10-09T06:22:01;11.70;;;4.70;;
67640;SDS011;54434;50.096;20.082;2023-10-09T06:24:55;9.70;;;4.60;;
67640;SDS011;54434;50.096;20.082;2023-10-09T06:27:41;15.70;;;4.80;;
67640;SDS011;54434;50.096;20.082;2023-10-09T06:30:35;10.50;;;4.90;;
67640;SDS011;54434;50.096;20.082;2023-10-09T06:33:18;13.20;;;5.60;;
67640;SDS011;54434;50.096;20.082;2023-10-09T06:36:03;13.00;;;5.30;;
67640;SDS011;54434;50.096;20.082;2023-10-09T06:38:51;10.60;;;4.70;;
67640;SDS011;54434;50.096;20.082;2023-10-09T06:41:47;12.70;;;4.90;;
67640;SDS011;54434;50.096;20.082;2023-10-09T06:44:42;10.00;;;4.70;;
67640;SDS011;54434;50.096;20.082;2023-10-09T06:47:26;9.60;;;4.70;;
67640;SDS011;54434;50.096;20.082;2023-10-09T06:50:12;11.40;;;5.10;;
67640;SDS011;54434;50.096;20.082;2023-10-09T06:53:20;13.30;;;4.40;;
67640;SDS011;54434;50.096;20.082;2023-10-09T06:56:19;7.60;;;4.30;;
67640;SDS011;54434;50.096;20.082;2023-10-09T06:59:00;12.00;;;4.20;;
67640;SDS011;54434;50.096;20.082;2023-10-09T07:01:48;12.20;;;4.00;;
67640;SDS011;54434;50.096;20.082;2023-10-09T07:04:43;12.30;;;3.90;;
67640;SDS011;54434;50.096;20.082;2023-10-09T07:07:22;18.00;;;4.80;;
67640;SDS011;54434;50.096;20.082;2023-10-09T07:09:59;19.00;;;4.50;;
67640;SDS011;54434;50.096;20.082;2023-10-09T07:12:53;11.20;;;4.00;;
67640;SDS011;54434;50.096;20.082;2023-10-09T07:15:31;10.90;;;4.10;;
67640;SDS011;54434;50.096;20.082;2023-10-09T07:18:25;14.80;;;4.10;;
67640;SDS011;54434;50.096;20.082;2023-10-09T07:21:19;14.70;;;3.70;;
67640;SDS011;54434;50.096;20.082;2023-10-09T07:24:01;8.10;;;3.70;;
67640;SDS011;54434;50.096;20.082;2023-10-09T07:26:48;8.30;;;3.60;;
67640;SDS011;54434;50.096;20.082;2023-10-09T07:29:27;8.30;;;3.50;;
67640;SDS011;54434;50.096;20.082;2023-10-09T07:32:21;10.60;;;3.70;;
67640;SDS011;54434;50.096;20.082;2023-10-09T07:35:03;7.70;;;3.50;;
67640;SDS011;54434;50.096;20.082;2023-10-09T07:37:42;6.80;;;3.00;;
67640;SDS011;54434;50.096;20.082;2023-10-09T07:40:26;12.30;;;3.00;;
67640;SDS011;54434;50.096;20.082;2023-10-09T07:43:05;8.60;;;3.20;;
67640;SDS011;54434;50.096;20.082;2023-10-09T07:45:41;6.30;;;3.00;;
67640;SDS011;54434;50.096;20.082;2023-10-09T07:48:36;12.80;;;4.00;;
67640;SDS011;54434;50.096;20.082;2023-10-09T07:51:26;11.20;;;3.10;;
67640;SDS011;54434;50.096;20.082;2023-10-09T07:54:06;8.80;;;2.80;;
67640;SDS011;54434;50.096;20.082;2023-10-09T07:56:43;8.30;;;2.90;;
67640;SDS011;54434;50.096;20.082;2023-10-09T07:59:20;6.20;;;2.90;;
67640;SDS011;54434;50.096;20.082;2023-10-09T08:01:57;7.40;;;3.00;;
67640;SDS011;54434;50.096;20.082;2023-10-09T08:04:36;6.70;;;3.00;;
67640;SDS011;54434;50.096;20.082;2023-10-09T08:07:14;6.30;;;3.20;;
67640;SDS011;54434;50.096;20.082;2023-10-09T08:10:19;7.80;;;3.60;;
67640;SDS011;54434;50.096;20.082;2023-10-09T08:13:13;7.80;;;2.90;;
67640;SDS011;54434;50.096;20.082;2023-10-09T08:16:09;7.20;;;3.60;;
67640;SDS011;54434;50.096;20.082;2023-10-09T08:18:54;6.60;;;3.10;;
67640;SDS011;54434;50.096;20.082;2023-10-09T08:21:30;7.30;;;3.80;;
67640;SDS011;54434;50.096;20.082;2023-10-09T08:24:17;7.40;;;3.40;;
67640;SDS011;54434;50.096;20.082;2023-10-09T08:27:08;6.40;;;3.20;;
67640;SDS011;54434;50.096;20.082;2023-10-09T08:30:21;8.10;;;3.20;;
67640;SDS011;54434;50.096;20.082;2023-10-09T08:33:14;9.40;;;3.70;;
67640;SDS011;54434;50.096;20.082;2023-10-09T08:36:20;7.70;;;3.50;;
67640;SDS011;54434;50.096;20.082;2023-10-09T08:39:06;8.50;;;3.70;;
67640;SDS011;54434;50.096;20.082;2023-10-09T08:41:51;7.60;;;3.50;;
67640;SDS011;54434;50.096;20.082;2023-10-09T08:44:32;6.30;;;2.90;;
67640;SDS011;54434;50.096;20.082;2023-10-09T08:47:09;6.00;;;2.90;;
67640;SDS011;54434;50.096;20.082;2023-10-09T08:49:46;10.50;;;3.00;;
67640;SDS011;54434;50.096;20.082;2023-10-09T08:52:24;5.40;;;2.40;;
67640;SDS011;54434;50.096;20.082;2023-10-09T08:55:02;5.40;;;2.50;;
67640;SDS011;54434;50.096;20.082;2023-10-09T08:57:41;6.00;;;2.30;;
67640;SDS011;54434;50.096;20.082;2023-10-09T09:00:22;5.10;;;2.00;;
67640;SDS011;54434;50.096;20.082;2023-10-09T09:02:59;4.40;;;1.90;;
67640;SDS011;54434;50.096;20.082;2023-10-09T09:05:37;4.00;;;1.70;;
67640;SDS011;54434;50.096;20.082;2023-10-09T09:08:27;3.50;;;1.60;;
67640;SDS011;54434;50.096;20.082;2023-10-09T09:11:08;3.50;;;1.60;;
67640;SDS011;54434;50.096;20.082;2023-10-09T09:14:02;2.80;;;1.50;;
67640;SDS011;54434;50.096;20.082;2023-10-09T09:16:46;3.80;;;1.70;;
67640;SDS011;54434;50.096;20.082;2023-10-09T09:19:32;3.40;;;1.80;;
67640;SDS011;54434;50.096;20.082;2023-10-09T09:22:11;3.00;;;1.60;;
67640;SDS011;54434;50.096;20.082;2023-10-09T09:25:00;4.90;;;1.70;;
67640;SDS011;54434;50.096;20.082;2023-10-09T09:27:49;3.60;;;1.70;;
67640;SDS011;54434;50.096;20.082;2023-10-09T09:30:29;3.30;;;1.80;;
67640;SDS011;54434;50.096;20.082;2023-10-09T09:33:21;5.00;;;2.20;;
67640;SDS011;54434;50.096;20.082;2023-10-09T09:36:12;8.30;;;2.90;;
67640;SDS011;54434;50.096;20.082;2023-10-09T09:38:48;9.60;;;3.90;;
67640;SDS011;54434;50.096;20.082;2023-10-09T09:41:27;11.20;;;3.30;;
67640;SDS011;54434;50.096;20.082;2023-10-09T09:44:07;8.00;;;3.10;;
67640;SDS011;54434;50.096;20.082;2023-10-09T09:46:48;7.80;;;3.00;;
67640;SDS011;54434;50.096;20.082;2023-10-09T09:49:28;5.40;;;2.40;;
67640;SDS011;54434;50.096;20.082;2023-10-09T09:52:06;5.00;;;2.00;;
67640;SDS011;54434;50.096;20.082;2023-10-09T09:54:45;3.50;;;1.80;;
67640;SDS011;54434;50.096;20.082;2023-10-09T09:57:25;8.10;;;2.90;;
67640;SDS011;54434;50.096;20.082;2023-10-09T10:00:02;12.90;;;5.10;;
67640;SDS011;54434;50.096;20.082;2023-10-09T10:03:08;10.40;;;4.70;;
67640;SDS011;54434;50.096;20.082;2023-10-09T10:05:56;15.80;;;7.00;;
67640;SDS011;54434;50.096;20.082;2023-10-09T10:08:38;11.20;;;4.50;;
67640;SDS011;54434;50.096;20.082;2023-10-09T10:11:44;8.30;;;3.60;;
67640;SDS011;54434;50.096;20.082;2023-10-09T10:14:55;6.90;;;3.10;;
67640;SDS011;54434;50.096;20.082;2023-10-09T10:17:33;6.60;;;2.80;;
67640;SDS011;54434;50.096;20.082;2023-10-09T10:21:17;5.40;;;2.60;;
67640;SDS011;54434;50.096;20.082;2023-10-09T10:24:43;8.80;;;2.60;;
67640;SDS011;54434;50.096;20.082;2023-10-09T10:27:30;4.10;;;2.00;;
67640;SDS011;54434;50.096;20.082;2023-10-09T10:30:33;5.00;;;2.70;;
67640;SDS011;54434;50.096;20.082;2023-10-09T10:33:16;6.50;;;3.40;;
67640;SDS011;54434;50.096;20.082;2023-10-09T10:35:56;13.20;;;5.40;;
67640;SDS011;54434;50.096;20.082;2023-10-09T10:38:39;8.20;;;3.10;;
67640;SDS011;54434;50.096;20.082;2023-10-09T10:41:23;3.50;;;1.70;;
67640;SDS011;54434;50.096;20.082;2023-10-09T10:44:02;2.60;;;1.60;;
67640;SDS011;54434;50.096;20.082;2023-10-09T10:46:52;2.80;;;1.40;;
67640;SDS011;54434;50.096;20.082;2023-10-09T10:49:30;3.80;;;1.80;;
67640;SDS011;54434;50.096;20.082;2023-10-09T10:52:21;4.00;;;1.70;;
67640;SDS011;54434;50.096;20.082;2023-10-09T10:55:14;3.60;;;1.70;;
67640;SDS011;54434;50.096;20.082;2023-10-09T10:58:19;4.40;;;1.80;;
67640;SDS011;54434;50.096;20.082;2023-10-09T11:01:08;3.30;;;1.80;;
67640;SDS011;54434;50.096;20.082;2023-10-09T11:03:49;4.70;;;2.40;;
67640;SDS011;54434;50.096;20.082;2023-10-09T11:06:33;12.50;;;3.60;;
67640;SDS011;54434;50.096;20.082;2023-10-09T11:09:15;5.60;;;2.00;;
67640;SDS011;54434;50.096;20.082;2023-10-09T11:11:56;6.40;;;2.10;;
67640;SDS011;54434;50.096;20.082;2023-10-09T11:14:49;4.60;;;1.90;;
67640;SDS011;54434;50.096;20.082;2023-10-09T11:17:41;3.30;;;1.80;;
67640;SDS011;54434;50.096;20.082;2023-10-09T11:20:19;6.40;;;2.90;;
67640;SDS011;54434;50.096;20.082;2023-10-09T11:22:58;4.20;;;2.00;;
67640;SDS011;54434;50.096;20.082;2023-10-09T11:25:49;2.90;;;1.80;;
67640;SDS011;54434;50.096;20.082;2023-10-09T11:28:26;5.40;;;2.30;;
67640;SDS011;54434;50.096;20.082;2023-10-09T11:31:16;4.40;;;2.20;;
67640;SDS011;54434;50.096;20.082;2023-10-09T11:33:54;6.40;;;3.20;;
67640;SDS011;54434;50.096;20.082;2023-10-09T11:36:37;6.10;;;2.30;;
67640;SDS011;54434;50.096;20.082;2023-10-09T11:39:29;3.00;;;1.80;;
67640;SDS011;54434;50.096;20.082;2023-10-09T11:42:09;3.60;;;2.00;;
67640;SDS011;54434;50.096;20.082;2023-10-09T11:45:21;3.80;;;1.80;;
67640;SDS011;54434;50.096;20.082;2023-10-09T11:48:15;5.60;;;2.50;;
67640;SDS011;54434;50.096;20.082;2023-10-09T11:50:58;4.00;;;1.90;;
67640;SDS011;54434;50.096;20.082;2023-10-09T11:53:49;4.00;;;2.30;;
67640;SDS011;54434;50.096;20.082;2023-10-09T11:56:28;3.20;;;1.80;;
67640;SDS011;54434;50.096;20.082;2023-10-09T11:59:06;4.20;;;2.20;;
67640;SDS011;54434;50.096;20.082;2023-10-09T12:01:47;7.60;;;3.50;;
67640;SDS011;54434;50.096;20.082;2023-10-09T12:04:26;8.80;;;3.50;;
67640;SDS011;54434;50.096;20.082;2023-10-09T12:07:04;7.10;;;3.10;;
67640;SDS011;54434;50.096;20.082;2023-10-09T12:09:42;6.20;;;2.90;;
67640;SDS011;54434;50.096;20.082;2023-10-09T12:12:19;8.30;;;3.30;;
67640;SDS011;54434;50.096;20.082;2023-10-09T12:15:00;6.90;;;3.50;;
67640;SDS011;54434;50.096;20.082;2023-10-09T12:17:39;7.00;;;3.20;;
67640;SDS011;54434;50.096;20.082;2023-10-09T12:20:18;6.00;;;2.80;;
67640;SDS011;54434;50.096;20.082;2023-10-09T12:23:06;6.70;;;2.20;;
67640;SDS011;54434;50.096;20.082;2023-10-09T12:25:49;4.10;;;2.20;;
67640;SDS011;54434;50.096;20.082;2023-10-09T12:28:30;4.70;;;2.30;;
67640;SDS011;54434;50.096;20.082;2023-10-09T12:31:08;4.60;;;2.40;;
67640;SDS011;54434;50.096;20.082;2023-10-09T12:33:45;4.50;;;2.30;;
67640;SDS011;54434;50.096;20.082;2023-10-09T12:36:24;5.70;;;2.50;;
67640;SDS011;54434;50.096;20.082;2023-10-09T12:39:00;3.80;;;1.90;;
67640;SDS011;54434;50.096;20.082;2023-10-09T12:41:39;5.50;;;2.60;;
67640;SDS011;54434;50.096;20.082;2023-10-09T12:44:16;6.20;;;3.10;;
67640;SDS011;54434;50.096;20.082;2023-10-09T12:46:53;7.50;;;3.60;;
67640;SDS011;54434;50.096;20.082;2023-10-09T12:49:31;6.00;;;3.10;;
67640;SDS011;54434;50.096;20.082;2023-10-09T12:52:13;5.80;;;3.00;;
67640;SDS011;54434;50.096;20.082;2023-10-09T12:54:53;6.80;;;3.00;;
67640;SDS011;54434;50.096;20.082;2023-10-09T12:57:33;7.70;;;3.60;;
67640;SDS011;54434;50.096;20.082;2023-10-09T13:00:14;6.80;;;3.20;;
67640;SDS011;54434;50.096;20.082;2023-10-09T13:03:00;6.20;;;3.00;;
67640;SDS011;54434;50.096;20.082;2023-10-09T13:05:52;7.40;;;3.20;;
67640;SDS011;54434;50.096;20.082;2023-10-09T13:08:32;7.00;;;3.10;;
67640;SDS011;54434;50.096;20.082;2023-10-09T13:11:12;6.80;;;3.30;;
67640;SDS011;54434;50.096;20.082;2023-10-09T13:13:51;5.50;;;3.30;;
67640;SDS011;54434;50.096;20.082;2023-10-09T13:16:37;8.30;;;3.40;;
67640;SDS011;54434;50.096;20.082;2023-10-09T13:19:16;7.70;;;3.50;;
67640;SDS011;54434;50.096;20.082;2023-10-09T13:21:54;6.60;;;3.50;;
67640;SDS011;54434;50.096;20.082;2023-10-09T13:24:31;9.50;;;3.80;;
67640;SDS011;54434;50.096;20.082;2023-10-09T13:27:15;6.10;;;3.30;;
67640;SDS011;54434;50.096;20.082;2023-10-09T13:29:57;5.00;;;2.80;;
67640;SDS011;54434;50.096;20.082;2023-10-09T13:32:42;6.90;;;3.10;;
67640;SDS011;54434;50.096;20.082;2023-10-09T13:35:24;9.10;;;3.10;;
67640;SDS011;54434;50.096;20.082;2023-10-09T13:38:13;8.10;;;3.40;;
67640;SDS011;54434;50.096;20.082;2023-10-09T13:41:01;9.20;;;4.40;;
67640;SDS011;54434;50.096;20.082;2023-10-09T13:43:40;7.50;;;3.80;;
67640;SDS011;54434;50.096;20.082;2023-10-09T13:46:19;7.70;;;3.70;;
67640;SDS011;54434;50.096;20.082;2023-10-09T13:48:58;9.20;;;4.60;;
67640;SDS011;54434;50.096;20.082;2023-10-09T13:51:35;9.80;;;4.60;;
67640;SDS011;54434;50.096;20.082;2023-10-09T13:54:17;9.30;;;2.80;;
67640;SDS011;54434;50.096;20.082;2023-10-09T13:57:02;4.60;;;2.70;;
67640;SDS011;54434;50.096;20.082;2023-10-09T13:59:41;4.80;;;2.40;;
67640;SDS011;54434;50.096;20.082;2023-10-09T14:02:23;4.80;;;2.20;;
67640;SDS011;54434;50.096;20.082;2023-10-09T14:05:03;7.10;;;2.50;;
67640;SDS011;54434;50.096;20.082;2023-10-09T14:07:42;5.60;;;2.40;;
67640;SDS011;54434;50.096;20.082;2023-10-09T14:10:19;5.50;;;2.70;;
67640;SDS011;54434;50.096;20.082;2023-10-09T14:13:00;8.70;;;2.80;;
67640;SDS011;54434;50.096;20.082;2023-10-09T14:15:45;4.80;;;2.40;;
67640;SDS011;54434;50.096;20.082;2023-10-09T14:18:23;4.20;;;2.20;;
67640;SDS011;54434;50.096;20.082;2023-10-09T14:21:06;4.10;;;2.40;;
67640;SDS011;54434;50.096;20.082;2023-10-09T14:23:49;5.30;;;2.80;;
67640;SDS011;54434;50.096;20.082;2023-10-09T14:26:29;6.30;;;3.30;;
67640;SDS011;54434;50.096;20.082;2023-10-09T14:29:08;7.00;;;3.60;;
67640;SDS011;54434;50.096;20.082;2023-10-09T14:31:48;8.70;;;4.30;;
67640;SDS011;54434;50.096;20.082;2023-10-09T14:34:34;9.90;;;4.80;;
67640;SDS011;54434;50.096;20.082;2023-10-09T14:37:13;9.00;;;4.40;;
67640;SDS011;54434;50.096;20.082;2023-10-09T14:39:50;7.30;;;3.80;;
67640;SDS011;54434;50.096;20.082;2023-10-09T14:42:26;8.20;;;4.00;;
67640;SDS011;54434;50.096;20.082;2023-10-09T14:45:03;9.20;;;5.10;;
67640;SDS011;54434;50.096;20.082;2023-10-09T14:47:41;5.50;;;3.20;;
67640;SDS011;54434;50.096;20.082;2023-10-09T14:50:20;5.80;;;3.30;;
67640;SDS011;54434;50.096;20.082;2023-10-09T14:52:57;5.40;;;2.80;;
67640;SDS011;54434;50.096;20.082;2023-10-09T14:55:34;4.50;;;2.80;;
67640;SDS011;54434;50.096;20.082;2023-10-09T14:58:12;6.00;;;2.80;;
67640;SDS011;54434;50.096;20.082;2023-10-09T15:00:50;7.10;;;3.20;;
67640;SDS011;54434;50.096;20.082;2023-10-09T15:03:27;6.70;;;3.20;;
67640;SDS011;54434;50.096;20.082;2023-10-09T15:06:11;5.20;;;3.00;;
67640;SDS011;54434;50.096;20.082;2023-10-09T15:08:52;6.40;;;2.90;;
67640;SDS011;54434;50.096;20.082;2023-10-09T15:11:30;4.80;;;2.80;;
67640;SDS011;54434;50.096;20.082;2023-10-09T15:14:07;5.50;;;3.10;;
67640;SDS011;54434;50.096;20.082;2023-10-09T15:16:43;6.50;;;3.30;;
67640;SDS011;54434;50.096;20.082;2023-10-09T15:19:20;5.90;;;3.30;;
67640;SDS011;54434;50.096;20.082;2023-10-09T15:22:02;6.30;;;3.50;;
67640;SDS011;54434;50.096;20.082;2023-10-09T15:24:43;7.50;;;3.50;;
67640;SDS011;54434;50.096;20.082;2023-10-09T15:27:19;6.20;;;3.90;;
67640;SDS011;54434;50.096;20.082;2023-10-09T15:29:57;6.50;;;3.80;;
67640;SDS011;54434;50.096;20.082;2023-10-09T15:32:34;5.90;;;3.90;;
67640;SDS011;54434;50.096;20.082;2023-10-09T15:35:11;7.10;;;3.60;;
67640;SDS011;54434;50.096;20.082;2023-10-09T15:37:47;9.90;;;4.20;;
67640;SDS011;54434;50.096;20.082;2023-10-09T15:40:25;7.90;;;4.20;;
67640;SDS011;54434;50.096;20.082;2023-10-09T15:43:04;7.60;;;3.70;;
67640;SDS011;54434;50.096;20.082;2023-10-09T15:45:44;7.10;;;4.50;;
67640;SDS011;54434;50.096;20.082;2023-10-09T15:48:23;5.40;;;3.60;;
67640;SDS011;54434;50.096;20.082;2023-10-09T15:50:59;7.10;;;4.30;;
67640;SDS011;54434;50.096;20.082;2023-10-09T15:53:37;9.40;;;4.40;;
67640;SDS011;54434;50.096;20.082;2023-10-09T15:56:15;6.30;;;4.20;;
67640;SDS011;54434;50.096;20.082;2023-10-09T15:58:52;8.50;;;4.50;;
67640;SDS011;54434;50.096;20.082;2023-10-09T16:01:29;8.90;;;4.60;;